sensor_id;sensor_type;location;lat;lon;timestamp;pressure;altitude;pressure_sealevel;temperature;humidity
61682;BME280;47577;43.610;25.010;2023-02-12T04:07:16;101480.81;;;0.49;67.21
61682;BME280;47577;43.610;25.010;2023-02-12T04:09:42;101487.56;;;0.39;67.11
61682;BME280;47577;43.610;25.010;2023-02-12T04:12:25;101491.25;;;0.47;66.62
61682;BME280;47577;43.610;25.010;2023-02-12T04:33:33;101508.06;;;0.57;67.59
61682;BME280;47577;43.610;25.010;2023-02-12T04:36:28;101522.94;;;0.60;66.84
61682;BME280;47577;43.610;25.010;2023-02-12T04:38:59;101523.84;;;0.60;67.41
61682;BME280;47577;43.610;25.010;2023-02-12T04:41:26;101521.66;;;0.42;67.32
61682;BME280;47577;43.610;25.010;2023-02-12T04:43:52;101532.41;;;0.54;67.38
61682;BME280;47577;43.610;25.010;2023-02-12T04:46:17;101541.94;;;0.51;67.76
61682;BME280;47577;43.610;25.010;2023-02-12T04:51:18;101537.06;;;0.31;68.55
61682;BME280;47577;43.610;25.010;2023-02-12T04:53:44;101543.69;;;0.50;68.39
61682;BME280;47577;43.610;25.010;2023-02-12T04:56:11;101545.47;;;0.53;68.11
61682;BME280;47577;43.610;25.010;2023-02-12T04:58:40;101551.69;;;0.58;68.08
61682;BME280;47577;43.610;25.010;2023-02-12T05:01:06;101547.16;;;0.51;68.29
61682;BME280;47577;43.610;25.010;2023-02-12T05:03:33;101551.69;;;0.58;68.44
61682;BME280;47577;43.610;25.010;2023-02-12T05:06:04;101547.88;;;0.45;68.46
61682;BME280;47577;43.610;25.010;2023-02-12T05:08:30;101555.69;;;0.44;68.52
61682;BME280;47577;43.610;25.010;2023-02-12T05:10:56;101557.59;;;0.49;68.83
61682;BME280;47577;43.610;25.010;2023-02-12T05:13:22;101551.63;;;0.55;68.46
61682;BME280;47577;43.610;25.010;2023-02-12T05:15:48;101555.63;;;0.76;67.89
61682;BME280;47577;43.610;25.010;2023-02-12T05:18:13;101562.91;;;0.52;68.15
61682;BME280;47577;43.610;25.010;2023-02-12T05:20:39;101574.75;;;0.71;68.36
61682;BME280;47577;43.610;25.010;2023-02-12T05:23:04;101566.97;;;0.75;67.68
61682;BME280;47577;43.610;25.010;2023-02-12T05:25:30;101575.78;;;0.78;67.93
61682;BME280;47577;43.610;25.010;2023-02-12T05:27:56;101574.00;;;0.77;68.03
61682;BME280;47577;43.610;25.010;2023-02-12T05:30:22;101567.78;;;0.72;67.73
61682;BME280;47577;43.610;25.010;2023-02-12T05:32:48;101582.59;;;0.71;68.00
61682;BME280;47577;43.610;25.010;2023-02-12T05:35:13;101583.47;;;0.72;67.81
61682;BME280;47577;43.610;25.010;2023-02-12T05:37:39;101589.78;;;0.80;67.85
61682;BME280;47577;43.610;25.010;2023-02-12T05:40:05;101599.09;;;0.69;67.71
61682;BME280;47577;43.610;25.010;2023-02-12T05:42:33;101596.50;;;0.69;67.69
61682;BME280;47577;43.610;25.010;2023-02-12T05:44:59;101592.78;;;0.61;68.27
61682;BME280;47577;43.610;25.010;2023-02-12T05:47:24;101610.50;;;0.71;68.50
61682;BME280;47577;43.610;25.010;2023-02-12T05:49:50;101608.63;;;0.65;68.44
61682;BME280;47577;43.610;25.010;2023-02-12T05:52:16;101607.84;;;0.69;69.05
61682;BME280;47577;43.610;25.010;2023-02-12T05:54:41;101613.81;;;0.64;68.94
61682;BME280;47577;43.610;25.010;2023-02-12T05:57:10;101610.06;;;0.54;69.45
61682;BME280;47577;43.610;25.010;2023-02-12T05:59:36;101626.25;;;0.72;69.31
61682;BME280;47577;43.610;25.010;2023-02-12T06:02:01;101621.78;;;0.68;68.90
61682;BME280;47577;43.610;25.010;2023-02-12T06:04:27;101636.09;;;0.81;68.10
61682;BME280;47577;43.610;25.010;2023-02-12T06:06:54;101637.06;;;0.85;68.79
61682;BME280;47577;43.610;25.010;2023-02-12T06:09:20;101647.72;;;0.93;68.21
61682;BME280;47577;43.610;25.010;2023-02-12T06:11:46;101642.25;;;0.83;69.02
61682;BME280;47577;43.610;25.010;2023-02-12T06:14:15;101652.09;;;0.94;67.85
61682;BME280;47577;43.610;25.010;2023-02-12T06:16:44;101648.53;;;0.90;68.40
61682;BME280;47577;43.610;25.010;2023-02-12T06:19:11;101656.50;;;0.95;68.22
61682;BME280;47577;43.610;25.010;2023-02-12T06:21:36;101652.94;;;0.91;68.24
61682;BME280;47577;43.610;25.010;2023-02-12T06:24:03;101643.63;;;1.02;68.04
61682;BME280;47577;43.610;25.010;2023-02-12T06:26:29;101659.78;;;1.21;67.44
61682;BME280;47577;43.610;25.010;2023-02-12T06:28:55;101662.56;;;1.27;67.49
61682;BME280;47577;43.610;25.010;2023-02-12T06:31:24;101666.09;;;1.29;67.54
61682;BME280;47577;43.610;25.010;2023-02-12T06:33:51;101676.56;;;1.29;67.66
61682;BME280;47577;43.610;25.010;2023-02-12T06:36:18;101667.00;;;1.31;67.36
61682;BME280;47577;43.610;25.010;2023-02-12T06:38:44;101677.53;;;1.33;67.50
61682;BME280;47577;43.610;25.010;2023-02-12T06:41:09;101683.59;;;1.30;67.75
61682;BME280;47577;43.610;25.010;2023-02-12T06:43:35;101673.22;;;1.35;67.24
61682;BME280;47577;43.610;25.010;2023-02-12T06:46:03;101679.53;;;1.43;67.61
61682;BME280;47577;43.610;25.010;2023-02-12T06:48:29;101677.72;;;1.40;67.43
61682;BME280;47577;43.610;25.010;2023-02-12T06:50:56;101671.38;;;1.31;68.25
61682;BME280;47577;43.610;25.010;2023-02-12T06:53:21;101677.44;;;1.30;67.99
61682;BME280;47577;43.610;25.010;2023-02-12T06:55:47;101679.25;;;1.32;68.29
61682;BME280;47577;43.610;25.010;2023-02-12T06:58:12;101681.06;;;1.33;67.99
61682;BME280;47577;43.610;25.010;2023-02-12T07:00:38;101676.66;;;1.32;68.24
61682;BME280;47577;43.610;25.010;2023-02-12T07:03:04;101688.13;;;1.37;67.76
61682;BME280;47577;43.610;25.010;2023-02-12T07:05:29;101684.66;;;1.38;68.12
61682;BME280;47577;43.610;25.010;2023-02-12T07:07:55;101681.69;;;1.24;68.53
61682;BME280;47577;43.610;25.010;2023-02-12T07:10:20;101690.22;;;1.16;68.89
61682;BME280;47577;43.610;25.010;2023-02-12T07:12:46;101685.81;;;1.15;69.44
61682;BME280;47577;43.610;25.010;2023-02-12T07:15:13;101694.50;;;1.12;69.21
61682;BME280;47577;43.610;25.010;2023-02-12T07:17:39;101706.19;;;1.25;69.20
61682;BME280;47577;43.610;25.010;2023-02-12T07:20:05;101702.84;;;1.32;68.76
61682;BME280;47577;43.610;25.010;2023-02-12T07:22:30;101706.72;;;1.46;68.08
61682;BME280;47577;43.610;25.010;2023-02-12T07:24:59;101694.41;;;1.44;68.50
61682;BME280;47577;43.610;25.010;2023-02-12T07:27:25;101711.50;;;1.30;66.96
61682;BME280;47577;43.610;25.010;2023-02-12T07:29:51;101712.88;;;1.49;67.74
61682;BME280;47577;43.610;25.010;2023-02-12T07:32:16;101708.50;;;1.48;67.49
61682;BME280;47577;43.610;25.010;2023-02-12T07:34:42;101712.25;;;1.59;66.90
61682;BME280;47577;43.610;25.010;2023-02-12T07:37:08;101715.13;;;1.70;67.54
61682;BME280;47577;43.610;25.010;2023-02-12T07:39:33;101711.81;;;1.77;66.56
61682;BME280;47577;43.610;25.010;2023-02-12T07:41:59;101727.38;;;1.71;65.26
61682;BME280;47577;43.610;25.010;2023-02-12T07:44:25;101726.53;;;1.72;65.15
61682;BME280;47577;43.610;25.010;2023-02-12T07:46:51;101724.84;;;1.74;63.02
61682;BME280;47577;43.610;25.010;2023-02-12T07:49:20;101711.13;;;1.86;63.39
61682;BME280;47577;43.610;25.010;2023-02-12T07:51:47;101727.47;;;2.13;62.78
61682;BME280;47577;43.610;25.010;2023-02-12T07:54:13;101724.03;;;1.78;62.70
61682;BME280;47577;43.610;25.010;2023-02-12T07:56:40;101721.56;;;1.84;61.99
61682;BME280;47577;43.610;25.010;2023-02-12T07:59:09;101722.03;;;2.06;62.66
61682;BME280;47577;43.610;25.010;2023-02-12T08:01:41;101713.94;;;1.95;62.69
61682;BME280;47577;43.610;25.010;2023-02-12T08:04:12;101726.03;;;2.28;61.52
61682;BME280;47577;43.610;25.010;2023-02-12T08:06:41;101728.84;;;2.35;61.18
61682;BME280;47577;43.610;25.010;2023-02-12T08:09:09;101731.00;;;2.15;62.23
61682;BME280;47577;43.610;25.010;2023-02-12T08:11:35;101731.44;;;2.35;63.08
61682;BME280;47577;43.610;25.010;2023-02-12T08:14:02;101743.72;;;2.35;61.67
61682;BME280;47577;43.610;25.010;2023-02-12T08:16:29;101741.88;;;2.32;62.83
61682;BME280;47577;43.610;25.010;2023-02-12T08:18:56;101732.78;;;2.58;61.85
61682;BME280;47577;43.610;25.010;2023-02-12T08:21:27;101739.56;;;2.46;59.32
61682;BME280;47577;43.610;25.010;2023-02-12T08:23:54;101736.38;;;2.61;58.53
61682;BME280;47577;43.610;25.010;2023-02-12T08:26:23;101742.94;;;2.85;60.63
61682;BME280;47577;43.610;25.010;2023-02-12T08:28:54;101743.81;;;2.84;61.25
61682;BME280;47577;43.610;25.010;2023-02-12T08:31:23;101746.16;;;2.70;62.55
61682;BME280;47577;43.610;25.010;2023-02-12T08:33:50;101754.38;;;2.87;59.79
61682;BME280;47577;43.610;25.010;2023-02-12T08:36:23;101758.06;;;2.97;58.64
61682;BME280;47577;43.610;25.010;2023-02-12T08:38:49;101758.19;;;3.04;57.93
61682;BME280;47577;43.610;25.010;2023-02-12T08:41:17;101767.69;;;2.96;58.75
61682;BME280;47577;43.610;25.010;2023-02-12T08:43:43;101773.72;;;2.90;59.17
61682;BME280;47577;43.610;25.010;2023-02-12T08:46:15;101781.25;;;3.18;57.87
61682;BME280;47577;43.610;25.010;2023-02-12T08:48:42;101777.97;;;3.31;57.15
61682;BME280;47577;43.610;25.010;2023-02-12T08:51:18;101793.81;;;3.34;57.53
61682;BME280;47577;43.610;25.010;2023-02-12T08:53:46;101799.16;;;3.39;57.13
61682;BME280;47577;43.610;25.010;2023-02-12T08:56:15;101803.97;;;3.16;56.97
61682;BME280;47577;43.610;25.010;2023-02-12T08:58:42;101798.91;;;3.26;58.42
61682;BME280;47577;43.610;25.010;2023-02-12T09:01:10;101807.72;;;3.28;59.45
61682;BME280;47577;43.610;25.010;2023-02-12T09:03:36;101808.47;;;3.21;58.97
61682;BME280;47577;43.610;25.010;2023-02-12T09:06:05;101806.78;;;3.25;59.97
61682;BME280;47577;43.610;25.010;2023-02-12T09:08:32;101814.94;;;3.39;58.00
61682;BME280;47577;43.610;25.010;2023-02-12T09:10:58;101815.16;;;3.53;58.84
61682;BME280;47577;43.610;25.010;2023-02-12T09:13:24;101822.28;;;3.58;58.25
61682;BME280;47577;43.610;25.010;2023-02-12T09:15:50;101831.13;;;3.62;57.34
61682;BME280;47577;43.610;25.010;2023-02-12T09:18:16;101833.66;;;3.57;58.38
61682;BME280;47577;43.610;25.010;2023-02-12T09:20:43;101834.84;;;3.75;58.66
61682;BME280;47577;43.610;25.010;2023-02-12T09:23:11;101843.03;;;3.93;56.98
61682;BME280;47577;43.610;25.010;2023-02-12T09:25:40;101838.00;;;4.06;54.53
61682;BME280;47577;43.610;25.010;2023-02-12T09:28:06;101837.97;;;4.04;55.55
61682;BME280;47577;43.610;25.010;2023-02-12T09:30:32;101843.06;;;3.95;55.15
61682;BME280;47577;43.610;25.010;2023-02-12T09:32:58;101847.28;;;3.85;57.42
61682;BME280;47577;43.610;25.010;2023-02-12T09:35:24;101841.84;;;3.73;58.03
61682;BME280;47577;43.610;25.010;2023-02-12T09:37:51;101849.44;;;3.57;57.69
61682;BME280;47577;43.610;25.010;2023-02-12T09:40:25;101858.22;;;3.58;56.19
61682;BME280;47577;43.610;25.010;2023-02-12T09:45:42;101852.16;;;3.62;59.38
61682;BME280;47577;43.610;25.010;2023-02-12T09:50:51;101865.19;;;4.06;57.21
61682;BME280;47577;43.610;25.010;2023-02-12T09:53:20;101857.19;;;4.00;57.47
61682;BME280;47577;43.610;25.010;2023-02-12T09:55:47;101858.06;;;3.99;59.99
61682;BME280;47577;43.610;25.010;2023-02-12T09:58:32;101853.69;;;4.01;54.07
61682;BME280;47577;43.610;25.010;2023-02-12T10:01:01;101868.66;;;4.03;54.76
61682;BME280;47577;43.610;25.010;2023-02-12T10:03:32;101862.31;;;3.91;55.02
61682;BME280;47577;43.610;25.010;2023-02-12T10:06:01;101872.97;;;4.00;58.25
61682;BME280;47577;43.610;25.010;2023-02-12T10:11:34;101872.78;;;3.88;60.25
61682;BME280;47577;43.610;25.010;2023-02-12T10:16:57;101874.59;;;3.92;58.28
61682;BME280;47577;43.610;25.010;2023-02-12T10:23:10;101865.97;;;3.99;59.89
61682;BME280;47577;43.610;25.010;2023-02-12T10:25:52;101870.63;;;4.17;56.34
61682;BME280;47577;43.610;25.010;2023-02-12T10:28:40;101873.38;;;4.23;59.07
61682;BME280;47577;43.610;25.010;2023-02-12T10:33:38;101880.31;;;4.18;55.61
61682;BME280;47577;43.610;25.010;2023-02-12T10:36:30;101876.66;;;4.11;56.90
61682;BME280;47577;43.610;25.010;2023-02-12T10:39:06;101874.38;;;4.31;57.10
61682;BME280;47577;43.610;25.010;2023-02-12T10:41:44;101878.97;;;4.45;56.83
61682;BME280;47577;43.610;25.010;2023-02-12T10:44:11;101878.34;;;4.63;54.21
61682;BME280;47577;43.610;25.010;2023-02-12T10:46:37;101873.03;;;4.60;56.16
61682;BME280;47577;43.610;25.010;2023-02-12T10:49:04;101860.72;;;4.57;55.59
61682;BME280;47577;43.610;25.010;2023-02-12T10:54:37;101872.28;;;4.68;59.68
61682;BME280;47577;43.610;25.010;2023-02-12T10:57:14;101869.69;;;4.70;55.37
61682;BME280;47577;43.610;25.010;2023-02-12T10:59:42;101872.44;;;4.81;58.71
61682;BME280;47577;43.610;25.010;2023-02-12T11:02:19;101875.13;;;4.84;55.68
61682;BME280;47577;43.610;25.010;2023-02-12T11:04:45;101874.47;;;5.02;54.08
61682;BME280;47577;43.610;25.010;2023-02-12T11:07:11;101872.75;;;5.04;54.84
61682;BME280;47577;43.610;25.010;2023-02-12T11:09:39;101871.84;;;5.03;57.40
61682;BME280;47577;43.610;25.010;2023-02-12T11:14:56;101870.06;;;5.01;54.67
61682;BME280;47577;43.610;25.010;2023-02-12T11:17:32;101885.06;;;5.06;56.65
61682;BME280;47577;43.610;25.010;2023-02-12T11:20:27;101887.88;;;5.19;57.12
61682;BME280;47577;43.610;25.010;2023-02-12T11:22:57;101881.75;;;5.23;56.78
61682;BME280;47577;43.610;25.010;2023-02-12T11:25:28;101860.69;;;5.26;55.60
61682;BME280;47577;43.610;25.010;2023-02-12T11:30:29;101886.31;;;5.38;52.04
61682;BME280;47577;43.610;25.010;2023-02-12T11:33:13;101881.97;;;5.41;52.62
61682;BME280;47577;43.610;25.010;2023-02-12T11:35:58;101890.84;;;5.48;54.10
61682;BME280;47577;43.610;25.010;2023-02-12T11:38:46;101889.22;;;5.59;55.92
61682;BME280;47577;43.610;25.010;2023-02-12T11:44:11;101876.13;;;5.73;55.78
61682;BME280;47577;43.610;25.010;2023-02-12T11:46:47;101870.81;;;5.70;53.34
61682;BME280;47577;43.610;25.010;2023-02-12T11:49:21;101885.72;;;5.63;56.87
61682;BME280;47577;43.610;25.010;2023-02-12T11:51:49;101887.34;;;5.52;55.08
61682;BME280;47577;43.610;25.010;2023-02-12T11:54:19;101895.16;;;5.41;57.10
61682;BME280;47577;43.610;25.010;2023-02-12T11:56:46;101888.09;;;5.40;56.09
61682;BME280;47577;43.610;25.010;2023-02-12T12:00:12;101884.38;;;5.23;59.84
61682;BME280;47577;43.610;25.010;2023-02-12T12:02:29;101901.81;;;5.11;54.90
61682;BME280;47577;43.610;25.010;2023-02-12T12:05:07;101891.16;;;5.01;54.87
61682;BME280;47577;43.610;25.010;2023-02-12T12:07:35;101904.34;;;5.01;60.01
61682;BME280;47577;43.610;25.010;2023-02-12T12:10:09;101911.31;;;4.99;59.40
61682;BME280;47577;43.610;25.010;2023-02-12T12:12:53;101912.06;;;4.87;59.55
61682;BME280;47577;43.610;25.010;2023-02-12T12:15:28;101910.97;;;4.72;58.03
61682;BME280;47577;43.610;25.010;2023-02-12T12:18:31;101904.81;;;4.70;58.19
61682;BME280;47577;43.610;25.010;2023-02-12T12:21:44;101916.47;;;4.86;58.02
61682;BME280;47577;43.610;25.010;2023-02-12T12:24:19;101925.16;;;4.82;59.32
61682;BME280;47577;43.610;25.010;2023-02-12T12:26:56;101916.13;;;4.65;57.72
61682;BME280;47577;43.610;25.010;2023-02-12T12:30:01;101917.13;;;4.71;55.93
61682;BME280;47577;43.610;25.010;2023-02-12T12:32:33;101919.78;;;4.74;58.71
61682;BME280;47577;43.610;25.010;2023-02-12T12:35:01;101918.97;;;4.79;58.06
61682;BME280;47577;43.610;25.010;2023-02-12T12:37:36;101928.78;;;4.90;56.19
61682;BME280;47577;43.610;25.010;2023-02-12T12:41:15;101929.72;;;4.95;55.30
61682;BME280;47577;43.610;25.010;2023-02-12T12:43:25;101934.34;;;5.10;54.56
61682;BME280;47577;43.610;25.010;2023-02-12T12:52:11;101931.72;;;5.10;54.56
61682;BME280;47577;43.610;25.010;2023-02-12T12:54:59;101934.34;;;5.09;53.61
61682;BME280;47577;43.610;25.010;2023-02-12T12:57:36;101945.88;;;5.17;54.73
61682;BME280;47577;43.610;25.010;2023-02-12T13:00:19;101946.81;;;5.22;54.28
61682;BME280;47577;43.610;25.010;2023-02-12T13:08:42;101951.16;;;5.19;55.83
61682;BME280;47577;43.610;25.010;2023-02-12T13:14:00;101957.16;;;5.08;56.52
61682;BME280;47577;43.610;25.010;2023-02-12T13:16:34;101973.88;;;5.09;56.68
61682;BME280;47577;43.610;25.010;2023-02-12T13:19:31;101979.13;;;5.07;58.51
61682;BME280;47577;43.610;25.010;2023-02-12T13:22:09;101971.72;;;4.80;59.37
61682;BME280;47577;43.610;25.010;2023-02-12T13:24:47;101980.72;;;4.96;58.38
61682;BME280;47577;43.610;25.010;2023-02-12T13:27:34;101991.28;;;4.96;58.95
61682;BME280;47577;43.610;25.010;2023-02-12T13:30:26;101993.94;;;4.98;58.56
61682;BME280;47577;43.610;25.010;2023-02-12T13:33:06;101997.53;;;5.04;59.03
61682;BME280;47577;43.610;25.010;2023-02-12T13:35:38;101992.38;;;5.12;58.81
61682;BME280;47577;43.610;25.010;2023-02-12T13:38:07;101997.72;;;5.15;58.54
61682;BME280;47577;43.610;25.010;2023-02-12T13:40:36;101998.53;;;5.12;58.55
61682;BME280;47577;43.610;25.010;2023-02-12T13:45:59;101998.59;;;5.17;58.67
61682;BME280;47577;43.610;25.010;2023-02-12T13:54:35;102015.56;;;5.38;56.36
61682;BME280;47577;43.610;25.010;2023-02-12T13:57:02;102020.84;;;5.36;56.95
61682;BME280;47577;43.610;25.010;2023-02-12T14:02:03;102019.13;;;5.40;55.71
61682;BME280;47577;43.610;25.010;2023-02-12T14:04:36;102022.59;;;5.36;57.88
61682;BME280;47577;43.610;25.010;2023-02-12T14:07:09;102027.72;;;5.25;60.00
61682;BME280;47577;43.610;25.010;2023-02-12T14:09:40;102036.53;;;5.25;60.02
61682;BME280;47577;43.610;25.010;2023-02-12T14:12:11;102039.22;;;5.30;58.81
61682;BME280;47577;43.610;25.010;2023-02-12T14:14:45;102035.59;;;5.22;60.54
61682;BME280;47577;43.610;25.010;2023-02-12T14:27:53;102040.16;;;5.34;57.99
61682;BME280;47577;43.610;25.010;2023-02-12T14:30:27;102038.44;;;5.37;53.22
61682;BME280;47577;43.610;25.010;2023-02-12T14:35:38;102038.50;;;5.42;52.19
61682;BME280;47577;43.610;25.010;2023-02-12T14:40:51;102049.84;;;5.35;52.86
61682;BME280;47577;43.610;25.010;2023-02-12T14:43:37;102048.00;;;5.30;51.63
61682;BME280;47577;43.610;25.010;2023-02-12T14:48:53;102050.53;;;5.23;51.23
61682;BME280;47577;43.610;25.010;2023-02-12T14:51:33;102050.56;;;5.24;51.30
61682;BME280;47577;43.610;25.010;2023-02-12T14:54:01;102051.31;;;5.14;52.14
61682;BME280;47577;43.610;25.010;2023-02-12T14:56:33;102054.69;;;5.07;51.74
61682;BME280;47577;43.610;25.010;2023-02-12T14:59:05;102053.69;;;4.99;51.48
61682;BME280;47577;43.610;25.010;2023-02-12T15:01:32;102057.94;;;4.89;52.61
61682;BME280;47577;43.610;25.010;2023-02-12T15:04:00;102069.22;;;4.80;52.57
61682;BME280;47577;43.610;25.010;2023-02-12T15:06:37;102067.94;;;4.56;53.89
61682;BME280;47577;43.610;25.010;2023-02-12T15:09:15;102079.94;;;4.40;54.83
61682;BME280;47577;43.610;25.010;2023-02-12T15:11:49;102083.06;;;4.18;55.92
61682;BME280;47577;43.610;25.010;2023-02-12T15:14:26;102082.97;;;4.13;55.48
61682;BME280;47577;43.610;25.010;2023-02-12T15:17:04;102090.94;;;4.19;56.09
61682;BME280;47577;43.610;25.010;2023-02-12T15:19:52;102080.44;;;4.21;55.63
61682;BME280;47577;43.610;25.010;2023-02-12T15:22:37;102088.59;;;4.33;56.38
61682;BME280;47577;43.610;25.010;2023-02-12T15:25:23;102087.03;;;4.45;56.16
61682;BME280;47577;43.610;25.010;2023-02-12T15:27:50;102085.25;;;4.44;56.58
61682;BME280;47577;43.610;25.010;2023-02-12T15:30:21;102093.34;;;4.53;55.89
61682;BME280;47577;43.610;25.010;2023-02-12T15:32:48;102103.91;;;4.54;56.20
61682;BME280;47577;43.610;25.010;2023-02-12T15:35:35;102110.06;;;4.55;56.83
61682;BME280;47577;43.610;25.010;2023-02-12T15:38:01;102102.09;;;4.52;56.51
61682;BME280;47577;43.610;25.010;2023-02-12T15:40:30;102126.84;;;4.60;55.92
61682;BME280;47577;43.610;25.010;2023-02-12T15:43:04;102129.44;;;4.57;56.61
61682;BME280;47577;43.610;25.010;2023-02-12T15:45:35;102139.03;;;4.55;56.27
61682;BME280;47577;43.610;25.010;2023-02-12T15:50:52;102140.50;;;4.40;56.84
61682;BME280;47577;43.610;25.010;2023-02-12T15:53:22;102143.91;;;4.33;57.47
61682;BME280;47577;43.610;25.010;2023-02-12T15:55:49;102158.78;;;4.31;58.46
61682;BME280;47577;43.610;25.010;2023-02-12T15:58:27;102166.03;;;3.99;59.06
61682;BME280;47577;43.610;25.010;2023-02-12T16:00:58;102178.97;;;3.90;59.25
61682;BME280;47577;43.610;25.010;2023-02-12T16:03:32;102177.63;;;3.69;60.30
61682;BME280;47577;43.610;25.010;2023-02-12T16:06:08;102187.19;;;3.65;60.96
61682;BME280;47577;43.610;25.010;2023-02-12T16:08:44;102192.75;;;3.41;60.62
61682;BME280;47577;43.610;25.010;2023-02-12T16:11:11;102181.88;;;3.26;61.54
61682;BME280;47577;43.610;25.010;2023-02-12T16:13:45;102192.13;;;3.15;61.05
61682;BME280;47577;43.610;25.010;2023-02-12T16:18:37;102206.84;;;2.75;62.98
61682;BME280;47577;43.610;25.010;2023-02-12T16:21:23;102220.25;;;2.54;63.49
61682;BME280;47577;43.610;25.010;2023-02-12T16:23:50;102219.69;;;2.34;63.47
61682;BME280;47577;43.610;25.010;2023-02-12T16:26:23;102231.63;;;2.23;63.56
61682;BME280;47577;43.610;25.010;2023-02-12T16:28:55;102236.03;;;2.24;62.96
61682;BME280;47577;43.610;25.010;2023-02-12T16:31:22;102243.97;;;2.25;62.02
61682;BME280;47577;43.610;25.010;2023-02-12T16:33:52;102252.53;;;2.19;62.92
61682;BME280;47577;43.610;25.010;2023-02-12T16:38:57;102264.91;;;1.95;63.73
61682;BME280;47577;43.610;25.010;2023-02-12T16:41:28;102272.13;;;1.75;64.20
61682;BME280;47577;43.610;25.010;2023-02-12T16:46:31;102278.47;;;1.54;65.22
61682;BME280;47577;43.610;25.010;2023-02-12T16:48:58;102261.53;;;1.44;64.20
61682;BME280;47577;43.610;25.010;2023-02-12T16:51:47;102279.03;;;1.45;65.06
61682;BME280;47577;43.610;25.010;2023-02-12T16:56:53;102262.81;;;1.30;65.10
61682;BME280;47577;43.610;25.010;2023-02-12T16:59:18;102284.03;;;1.38;64.94
61682;BME280;47577;43.610;25.010;2023-02-12T17:01:57;102273.34;;;1.32;65.31
61682;BME280;47577;43.610;25.010;2023-02-12T17:04:24;102293.59;;;1.37;65.27
61682;BME280;47577;43.610;25.010;2023-02-12T17:06:50;102289.34;;;1.39;65.39
61682;BME280;47577;43.610;25.010;2023-02-12T17:09:15;102296.13;;;1.34;64.89
61682;BME280;47577;43.610;25.010;2023-02-12T17:11:41;102294.97;;;1.26;65.13
61682;BME280;47577;43.610;25.010;2023-02-12T17:14:14;102298.72;;;1.08;65.29
61682;BME280;47577;43.610;25.010;2023-02-12T17:16:40;102287.19;;;1.03;66.60
61682;BME280;47577;43.610;25.010;2023-02-12T17:19:07;102285.91;;;0.92;67.07
61682;BME280;47577;43.610;25.010;2023-02-12T17:21:35;102293.47;;;0.83;67.66
61682;BME280;47577;43.610;25.010;2023-02-12T17:24:19;102298.34;;;0.73;67.66
61682;BME280;47577;43.610;25.010;2023-02-12T17:26:45;102306.38;;;0.78;67.06
61682;BME280;47577;43.610;25.010;2023-02-12T17:29:11;102296.78;;;0.79;66.22
61682;BME280;47577;43.610;25.010;2023-02-12T17:31:37;102313.78;;;0.90;67.10
61682;BME280;47577;43.610;25.010;2023-02-12T17:34:03;102313.72;;;0.88;67.16
61682;BME280;47577;43.610;25.010;2023-02-12T17:36:29;102314.84;;;0.95;67.41
61682;BME280;47577;43.610;25.010;2023-02-12T17:38:55;102318.16;;;0.89;67.95
61682;BME280;47577;43.610;25.010;2023-02-12T17:41:21;102308.50;;;0.88;67.61
61682;BME280;47577;43.610;25.010;2023-02-12T17:43:46;102307.72;;;0.91;67.62
61682;BME280;47577;43.610;25.010;2023-02-12T17:46:21;102310.78;;;1.03;68.01
61682;BME280;47577;43.610;25.010;2023-02-12T17:48:48;102304.66;;;1.03;68.38
61682;BME280;47577;43.610;25.010;2023-02-12T17:51:14;102317.22;;;1.13;68.32
61682;BME280;47577;43.610;25.010;2023-02-12T17:53:40;102319.91;;;1.15;68.11
61682;BME280;47577;43.610;25.010;2023-02-12T17:56:17;102322.53;;;1.15;68.31
61682;BME280;47577;43.610;25.010;2023-02-12T17:58:44;102328.50;;;1.11;68.24
61682;BME280;47577;43.610;25.010;2023-02-12T18:01:13;102338.09;;;1.10;68.96
61682;BME280;47577;43.610;25.010;2023-02-12T18:03:40;102328.41;;;1.07;69.09
61682;BME280;47577;43.610;25.010;2023-02-12T18:06:07;102327.72;;;1.13;67.82
61682;BME280;47577;43.610;25.010;2023-02-12T18:08:33;102343.25;;;1.08;68.16
61682;BME280;47577;43.610;25.010;2023-02-12T18:11:09;102339.66;;;1.05;67.58
61682;BME280;47577;43.610;25.010;2023-02-12T18:13:36;102336.16;;;1.04;68.55
61682;BME280;47577;43.610;25.010;2023-02-12T18:16:07;102337.72;;;0.99;69.81
61682;BME280;47577;43.610;25.010;2023-02-12T18:18:33;102335.81;;;0.95;69.96
61682;BME280;47577;43.610;25.010;2023-02-12T18:20:59;102335.03;;;0.73;71.14
61682;BME280;47577;43.610;25.010;2023-02-12T18:23:25;102336.28;;;0.61;72.25
61682;BME280;47577;43.610;25.010;2023-02-12T18:25:50;102327.59;;;0.62;72.57
61682;BME280;47577;43.610;25.010;2023-02-12T18:28:16;102339.44;;;0.75;71.46
61682;BME280;47577;43.610;25.010;2023-02-12T18:30:42;102337.69;;;0.75;70.58
61682;BME280;47577;43.610;25.010;2023-02-12T18:33:10;102335.84;;;0.72;72.32
61682;BME280;47577;43.610;25.010;2023-02-12T18:35:36;102339.84;;;0.63;72.68
61682;BME280;47577;43.610;25.010;2023-02-12T18:38:05;102340.75;;;0.63;72.39
61682;BME280;47577;43.610;25.010;2023-02-12T18:40:31;102332.22;;;0.69;72.44
61682;BME280;47577;43.610;25.010;2023-02-12T18:42:57;102335.72;;;0.69;72.58
61682;BME280;47577;43.610;25.010;2023-02-12T18:45:22;102335.03;;;0.73;71.97
61682;BME280;47577;43.610;25.010;2023-02-12T18:47:48;102342.25;;;0.81;71.45
61682;BME280;47577;43.610;25.010;2023-02-12T18:50:14;102339.88;;;0.87;70.54
61682;BME280;47577;43.610;25.010;2023-02-12T18:52:40;102345.09;;;0.87;70.07
61682;BME280;47577;43.610;25.010;2023-02-12T18:55:06;102342.59;;;0.90;70.01
61682;BME280;47577;43.610;25.010;2023-02-12T18:57:32;102350.69;;;0.96;69.01
61682;BME280;47577;43.610;25.010;2023-02-12T18:59:57;102339.69;;;0.82;69.31
61682;BME280;47577;43.610;25.010;2023-02-12T19:02:23;102341.03;;;0.71;70.90